sensor_id;sensor_type;location;lat;lon;timestamp;temperature;humidity
14057;DHT22;7103;54.300;10.180;2022-12-18T00:01:20;-3.40;99.90
14057;DHT22;7103;54.300;10.180;2022-12-18T00:03:54;-3.30;99.90
14057;DHT22;7103;54.300;10.180;2022-12-18T00:06:25;-3.30;99.90
14057;DHT22;7103;54.300;10.180;2022-12-18T00:08:52;-3.40;99.90
14057;DHT22;7103;54.300;10.180;2022-12-18T00:11:24;-3.40;99.90
14057;DHT22;7103;54.300;10.180;2022-12-18T00:13:52;-3.40;99.90
14057;DHT22;7103;54.300;10.180;2022-12-18T00:16:22;-3.50;99.90
14057;DHT22;7103;54.300;10.180;2022-12-18T00:18:50;-3.50;99.90
14057;DHT22;7103;54.300;10.180;2022-12-18T00:21:18;-3.60;99.90
14057;DHT22;7103;54.300;10.180;2022-12-18T00:23:47;-3.50;99.90
14057;DHT22;7103;54.300;10.180;2022-12-18T00:26:17;-3.60;99.90
14057;DHT22;7103;54.300;10.180;2022-12-18T00:28:45;-3.60;99.90
14057;DHT22;7103;54.300;10.180;2022-12-18T00:31:15;-3.50;99.90
14057;DHT22;7103;54.300;10.180;2022-12-18T00:33:43;-3.60;99.90
14057;DHT22;7103;54.300;10.180;2022-12-18T00:36:18;-3.60;99.90
14057;DHT22;7103;54.300;10.180;2022-12-18T00:38:46;-3.60;99.90
14057;DHT22;7103;54.300;10.180;2022-12-18T00:41:15;-3.60;99.90
14057;DHT22;7103;54.300;10.180;2022-12-18T00:44:02;-3.60;99.90
14057;DHT22;7103;54.300;10.180;2022-12-18T00:46:30;-3.70;99.90
14057;DHT22;7103;54.300;10.180;2022-12-18T00:48:57;-3.70;99.90
14057;DHT22;7103;54.300;10.180;2022-12-18T00:51:24;-3.70;99.90
14057;DHT22;7103;54.300;10.180;2022-12-18T00:53:51;-3.70;99.90
14057;DHT22;7103;54.300;10.180;2022-12-18T00:56:22;-3.70;99.90
14057;DHT22;7103;54.300;10.180;2022-12-18T00:58:49;-3.70;99.90
14057;DHT22;7103;54.300;10.180;2022-12-18T01:01:16;-3.80;99.90
14057;DHT22;7103;54.300;10.180;2022-12-18T01:03:44;-3.80;99.90
14057;DHT22;7103;54.300;10.180;2022-12-18T01:06:14;-3.90;99.90
14057;DHT22;7103;54.300;10.180;2022-12-18T01:08:41;-3.90;99.90
14057;DHT22;7103;54.300;10.180;2022-12-18T01:11:10;-3.90;99.90
14057;DHT22;7103;54.300;10.180;2022-12-18T01:13:39;-3.90;99.90
14057;DHT22;7103;54.300;10.180;2022-12-18T01:16:06;-4.00;99.90
14057;DHT22;7103;54.300;10.180;2022-12-18T01:18:34;-4.00;99.90
14057;DHT22;7103;54.300;10.180;2022-12-18T01:21:04;-4.00;99.90
14057;DHT22;7103;54.300;10.180;2022-12-18T01:23:31;-3.90;99.90
14057;DHT22;7103;54.300;10.180;2022-12-18T01:26:03;-4.00;99.90
14057;DHT22;7103;54.300;10.180;2022-12-18T01:28:30;-4.00;99.90
14057;DHT22;7103;54.300;10.180;2022-12-18T01:30:57;-4.10;99.90
14057;DHT22;7103;54.300;10.180;2022-12-18T01:33:24;-4.00;99.90
14057;DHT22;7103;54.300;10.180;2022-12-18T01:35:51;-4.00;99.90
14057;DHT22;7103;54.300;10.180;2022-12-18T01:38:17;-4.10;99.90
14057;DHT22;7103;54.300;10.180;2022-12-18T01:40:44;-4.10;99.90
14057;DHT22;7103;54.300;10.180;2022-12-18T01:43:11;-4.10;99.90
14057;DHT22;7103;54.300;10.180;2022-12-18T01:45:38;-4.10;99.90
14057;DHT22;7103;54.300;10.180;2022-12-18T01:48:06;-4.00;99.90
14057;DHT22;7103;54.300;10.180;2022-12-18T01:50:40;-4.00;99.90
14057;DHT22;7103;54.300;10.180;2022-12-18T01:53:12;-3.90;99.90
14057;DHT22;7103;54.300;10.180;2022-12-18T01:55:45;-4.00;99.90
14057;DHT22;7103;54.300;10.180;2022-12-18T01:58:13;-3.90;99.90
14057;DHT22;7103;54.300;10.180;2022-12-18T02:00:40;-4.00;99.90
14057;DHT22;7103;54.300;10.180;2022-12-18T02:03:07;-3.90;99.90
14057;DHT22;7103;54.300;10.180;2022-12-18T02:14:05;-3.90;99.90
14057;DHT22;7103;54.300;10.180;2022-12-18T02:16:43;-3.90;99.90
14057;DHT22;7103;54.300;10.180;2022-12-18T02:22:17;-4.00;99.90
14057;DHT22;7103;54.300;10.180;2022-12-18T02:27:23;-3.90;99.90
14057;DHT22;7103;54.300;10.180;2022-12-18T02:29:52;-3.90;99.90
14057;DHT22;7103;54.300;10.180;2022-12-18T02:32:27;-3.90;99.90
14057;DHT22;7103;54.300;10.180;2022-12-18T02:34:57;-3.90;99.90
14057;DHT22;7103;54.300;10.180;2022-12-18T02:37:26;-3.90;99.90
14057;DHT22;7103;54.300;10.180;2022-12-18T02:39:56;-3.90;99.90
14057;DHT22;7103;54.300;10.180;2022-12-18T02:42:24;-3.90;99.90
14057;DHT22;7103;54.300;10.180;2022-12-18T02:44:55;-3.90;99.90
14057;DHT22;7103;54.300;10.180;2022-12-18T02:47:24;-3.90;99.90
14057;DHT22;7103;54.300;10.180;2022-12-18T02:50:11;-3.90;99.90
14057;DHT22;7103;54.300;10.180;2022-12-18T02:52:58;-3.80;99.90
14057;DHT22;7103;54.300;10.180;2022-12-18T03:01:09;-3.80;99.90
14057;DHT22;7103;54.300;10.180;2022-12-18T03:04:14;-3.80;99.90
14057;DHT22;7103;54.300;10.180;2022-12-18T03:06:46;-3.90;99.90
14057;DHT22;7103;54.300;10.180;2022-12-18T03:09:29;-4.00;99.90
14057;DHT22;7103;54.300;10.180;2022-12-18T03:12:04;-3.90;99.90
14057;DHT22;7103;54.300;10.180;2022-12-18T03:15:05;-3.90;99.90
14057;DHT22;7103;54.300;10.180;2022-12-18T03:17:49;-3.90;99.90
14057;DHT22;7103;54.300;10.180;2022-12-18T03:20:19;-4.00;99.90
14057;DHT22;7103;54.300;10.180;2022-12-18T03:22:52;-3.80;99.90
14057;DHT22;7103;54.300;10.180;2022-12-18T03:25:20;-3.80;99.90
14057;DHT22;7103;54.300;10.180;2022-12-18T03:27:51;-3.80;99.90
14057;DHT22;7103;54.300;10.180;2022-12-18T03:30:20;-3.80;99.90
14057;DHT22;7103;54.300;10.180;2022-12-18T03:32:52;-3.80;99.90
14057;DHT22;7103;54.300;10.180;2022-12-18T03:35:34;-3.80;99.90
14057;DHT22;7103;54.300;10.180;2022-12-18T03:38:03;-3.80;99.90
14057;DHT22;7103;54.300;10.180;2022-12-18T03:40:59;-3.90;99.90
14057;DHT22;7103;54.300;10.180;2022-12-18T03:46:11;-3.80;99.90
14057;DHT22;7103;54.300;10.180;2022-12-18T03:48:45;-3.90;99.90
14057;DHT22;7103;54.300;10.180;2022-12-18T03:54:03;-3.90;99.90
14057;DHT22;7103;54.300;10.180;2022-12-18T03:56:37;-3.90;99.90
14057;DHT22;7103;54.300;10.180;2022-12-18T03:59:05;-3.90;99.90
14057;DHT22;7103;54.300;10.180;2022-12-18T04:01:38;-3.90;99.90
14057;DHT22;7103;54.300;10.180;2022-12-18T04:04:06;-3.90;99.90
14057;DHT22;7103;54.300;10.180;2022-12-18T04:06:35;-4.00;99.90
14057;DHT22;7103;54.300;10.180;2022-12-18T04:09:02;-3.90;99.90
14057;DHT22;7103;54.300;10.180;2022-12-18T04:11:30;-4.00;99.90
14057;DHT22;7103;54.300;10.180;2022-12-18T04:13:58;-4.00;99.90
14057;DHT22;7103;54.300;10.180;2022-12-18T04:16:27;-4.00;99.90
14057;DHT22;7103;54.300;10.180;2022-12-18T04:18:55;-4.00;99.90
14057;DHT22;7103;54.300;10.180;2022-12-18T04:21:21;-4.00;99.90
14057;DHT22;7103;54.300;10.180;2022-12-18T04:23:49;-4.00;99.90
14057;DHT22;7103;54.300;10.180;2022-12-18T04:26:16;-4.10;99.90
14057;DHT22;7103;54.300;10.180;2022-12-18T04:28:43;-4.10;99.90
14057;DHT22;7103;54.300;10.180;2022-12-18T04:31:10;-4.10;99.90
14057;DHT22;7103;54.300;10.180;2022-12-18T04:33:37;-4.10;99.90
14057;DHT22;7103;54.300;10.180;2022-12-18T04:36:05;-4.10;99.90
14057;DHT22;7103;54.300;10.180;2022-12-18T04:38:32;-4.10;99.90
14057;DHT22;7103;54.300;10.180;2022-12-18T04:40:59;-4.00;99.90
14057;DHT22;7103;54.300;10.180;2022-12-18T04:43:26;-4.00;99.90
14057;DHT22;7103;54.300;10.180;2022-12-18T04:45:53;-4.10;99.90
14057;DHT22;7103;54.300;10.180;2022-12-18T04:48:20;-4.00;99.90
14057;DHT22;7103;54.300;10.180;2022-12-18T04:50:47;-4.10;99.90
14057;DHT22;7103;54.300;10.180;2022-12-18T04:53:14;-4.10;99.90
14057;DHT22;7103;54.300;10.180;2022-12-18T04:55:41;-4.20;99.90
14057;DHT22;7103;54.300;10.180;2022-12-18T04:58:08;-4.20;99.90
14057;DHT22;7103;54.300;10.180;2022-12-18T05:00:35;-4.20;99.90
14057;DHT22;7103;54.300;10.180;2022-12-18T05:03:02;-4.20;99.90
14057;DHT22;7103;54.300;10.180;2022-12-18T05:05:29;-4.20;99.90
14057;DHT22;7103;54.300;10.180;2022-12-18T05:07:56;-4.20;99.90
14057;DHT22;7103;54.300;10.180;2022-12-18T05:10:23;-4.20;99.90
14057;DHT22;7103;54.300;10.180;2022-12-18T05:12:50;-4.30;99.90
14057;DHT22;7103;54.300;10.180;2022-12-18T05:15:31;-4.30;99.90
14057;DHT22;7103;54.300;10.180;2022-12-18T05:17:59;-4.40;99.90
14057;DHT22;7103;54.300;10.180;2022-12-18T05:20:26;-4.40;99.90
14057;DHT22;7103;54.300;10.180;2022-12-18T05:22:55;-4.40;99.90
14057;DHT22;7103;54.300;10.180;2022-12-18T05:25:23;-4.40;99.90
14057;DHT22;7103;54.300;10.180;2022-12-18T05:27:50;-4.40;99.90
14057;DHT22;7103;54.300;10.180;2022-12-18T05:30:17;-4.40;99.90
14057;DHT22;7103;54.300;10.180;2022-12-18T05:32:44;-4.40;99.40
14057;DHT22;7103;54.300;10.180;2022-12-18T05:35:11;-4.40;97.70
14057;DHT22;7103;54.300;10.180;2022-12-18T05:37:37;-4.50;95.50
14057;DHT22;7103;54.300;10.180;2022-12-18T05:40:09;-4.50;97.10
14057;DHT22;7103;54.300;10.180;2022-12-18T05:42:36;-4.50;97.20
14057;DHT22;7103;54.300;10.180;2022-12-18T05:45:04;-4.50;99.80
14057;DHT22;7103;54.300;10.180;2022-12-18T05:47:31;-4.50;96.30
14057;DHT22;7103;54.300;10.180;2022-12-18T05:49:58;-4.50;93.60
14057;DHT22;7103;54.300;10.180;2022-12-18T05:52:25;-4.60;91.10
14057;DHT22;7103;54.300;10.180;2022-12-18T05:54:52;-4.70;91.10
14057;DHT22;7103;54.300;10.180;2022-12-18T05:57:19;-4.70;89.40
14057;DHT22;7103;54.300;10.180;2022-12-18T05:59:45;-4.70;91.10
14057;DHT22;7103;54.300;10.180;2022-12-18T06:02:12;-4.80;88.10
14057;DHT22;7103;54.300;10.180;2022-12-18T06:04:39;-4.80;90.80
14057;DHT22;7103;54.300;10.180;2022-12-18T06:07:06;-4.80;85.80
14057;DHT22;7103;54.300;10.180;2022-12-18T06:09:33;-4.80;84.90
14057;DHT22;7103;54.300;10.180;2022-12-18T06:12:00;-4.80;78.00
14057;DHT22;7103;54.300;10.180;2022-12-18T06:14:27;-4.90;72.90
14057;DHT22;7103;54.300;10.180;2022-12-18T06:16:54;-4.90;71.20
14057;DHT22;7103;54.300;10.180;2022-12-18T06:19:21;-4.90;66.70
14057;DHT22;7103;54.300;10.180;2022-12-18T06:21:48;-5.00;62.90
14057;DHT22;7103;54.300;10.180;2022-12-18T06:24:15;-5.00;66.60
14057;DHT22;7103;54.300;10.180;2022-12-18T06:26:42;-5.00;66.70
14057;DHT22;7103;54.300;10.180;2022-12-18T06:29:09;-5.00;66.60
14057;DHT22;7103;54.300;10.180;2022-12-18T06:31:36;-5.00;66.60
14057;DHT22;7103;54.300;10.180;2022-12-18T06:34:04;-5.00;66.60
14057;DHT22;7103;54.300;10.180;2022-12-18T06:36:31;-5.10;66.50
14057;DHT22;7103;54.300;10.180;2022-12-18T06:38:58;-5.10;66.50
14057;DHT22;7103;54.300;10.180;2022-12-18T06:41:26;-5.10;66.60
14057;DHT22;7103;54.300;10.180;2022-12-18T06:43:53;-5.00;66.80
14057;DHT22;7103;54.300;10.180;2022-12-18T06:46:25;-5.00;58.20
14057;DHT22;7103;54.300;10.180;2022-12-18T06:48:52;-5.10;56.50
14057;DHT22;7103;54.300;10.180;2022-12-18T06:51:20;-5.10;62.80
14057;DHT22;7103;54.300;10.180;2022-12-18T06:53:47;-5.00;60.10
14057;DHT22;7103;54.300;10.180;2022-12-18T06:56:14;-5.10;55.00
14057;DHT22;7103;54.300;10.180;2022-12-18T06:58:41;-5.10;51.70
14057;DHT22;7103;54.300;10.180;2022-12-18T07:01:10;-5.20;51.90
14057;DHT22;7103;54.300;10.180;2022-12-18T07:03:39;-5.20;53.10
14057;DHT22;7103;54.300;10.180;2022-12-18T07:06:13;-5.10;54.20
14057;DHT22;7103;54.300;10.180;2022-12-18T07:08:41;-5.10;54.10
14057;DHT22;7103;54.300;10.180;2022-12-18T07:11:08;-5.10;50.60
14057;DHT22;7103;54.300;10.180;2022-12-18T07:13:34;-5.10;51.90
14057;DHT22;7103;54.300;10.180;2022-12-18T07:16:09;-5.20;45.70
14057;DHT22;7103;54.300;10.180;2022-12-18T07:18:44;-5.20;45.80
14057;DHT22;7103;54.300;10.180;2022-12-18T07:21:17;-5.20;49.00
14057;DHT22;7103;54.300;10.180;2022-12-18T07:23:44;-5.20;55.90
14057;DHT22;7103;54.300;10.180;2022-12-18T07:26:16;-5.20;53.10
14057;DHT22;7103;54.300;10.180;2022-12-18T07:28:43;-5.10;54.70
14057;DHT22;7103;54.300;10.180;2022-12-18T07:31:20;-5.20;52.40
14057;DHT22;7103;54.300;10.180;2022-12-18T07:33:49;-5.10;55.20
14057;DHT22;7103;54.300;10.180;2022-12-18T07:36:17;-5.10;54.70
14057;DHT22;7103;54.300;10.180;2022-12-18T07:38:47;-5.00;52.00
14057;DHT22;7103;54.300;10.180;2022-12-18T07:41:14;-5.00;44.50
14057;DHT22;7103;54.300;10.180;2022-12-18T07:43:41;-5.10;41.50
14057;DHT22;7103;54.300;10.180;2022-12-18T07:46:09;-5.10;38.80
14057;DHT22;7103;54.300;10.180;2022-12-18T07:48:42;-5.10;45.40
14057;DHT22;7103;54.300;10.180;2022-12-18T07:51:11;-5.00;48.40
14057;DHT22;7103;54.300;10.180;2022-12-18T07:53:39;-5.00;43.90
14057;DHT22;7103;54.300;10.180;2022-12-18T07:56:11;-5.10;45.60
14057;DHT22;7103;54.300;10.180;2022-12-18T07:58:56;-5.00;51.40
14057;DHT22;7103;54.300;10.180;2022-12-18T08:01:23;-5.00;44.30
14057;DHT22;7103;54.300;10.180;2022-12-18T08:03:51;-5.00;41.70
14057;DHT22;7103;54.300;10.180;2022-12-18T08:06:18;-5.00;44.90
14057;DHT22;7103;54.300;10.180;2022-12-18T08:08:54;-5.00;45.40
14057;DHT22;7103;54.300;10.180;2022-12-18T08:11:22;-5.00;43.20
14057;DHT22;7103;54.300;10.180;2022-12-18T08:13:50;-4.90;40.80
14057;DHT22;7103;54.300;10.180;2022-12-18T08:16:18;-5.00;39.40
14057;DHT22;7103;54.300;10.180;2022-12-18T08:18:46;-4.90;42.80
14057;DHT22;7103;54.300;10.180;2022-12-18T08:21:17;-4.90;45.20
14057;DHT22;7103;54.300;10.180;2022-12-18T08:23:47;-4.90;40.90
14057;DHT22;7103;54.300;10.180;2022-12-18T08:26:15;-4.90;39.70
14057;DHT22;7103;54.300;10.180;2022-12-18T08:28:43;-4.80;43.10
14057;DHT22;7103;54.300;10.180;2022-12-18T08:31:10;-4.80;37.30
14057;DHT22;7103;54.300;10.180;2022-12-18T08:33:37;-4.80;30.70
14057;DHT22;7103;54.300;10.180;2022-12-18T08:36:05;-4.70;26.80
14057;DHT22;7103;54.300;10.180;2022-12-18T08:38:32;-4.70;17.30
14057;DHT22;7103;54.300;10.180;2022-12-18T08:41:00;-4.70;12.10
14057;DHT22;7103;54.300;10.180;2022-12-18T08:43:28;-4.70;12.10
14057;DHT22;7103;54.300;10.180;2022-12-18T08:46:33;-4.80;12.00
14057;DHT22;7103;54.300;10.180;2022-12-18T08:49:01;-4.70;12.00
14057;DHT22;7103;54.300;10.180;2022-12-18T08:51:29;-4.80;12.00
14057;DHT22;7103;54.300;10.180;2022-12-18T08:53:56;-4.80;11.90
14057;DHT22;7103;54.300;10.180;2022-12-18T08:56:23;-4.80;8.80
14057;DHT22;7103;54.300;10.180;2022-12-18T08:58:54;-4.70;3.90
14057;DHT22;7103;54.300;10.180;2022-12-18T09:01:21;-4.70;1.00
14057;DHT22;7103;54.300;10.180;2022-12-18T09:03:49;-4.80;1.00
14057;DHT22;7103;54.300;10.180;2022-12-18T09:06:18;-4.80;1.00
14057;DHT22;7103;54.300;10.180;2022-12-18T09:08:45;-4.80;1.00
14057;DHT22;7103;54.300;10.180;2022-12-18T09:11:23;-4.80;1.00
14057;DHT22;7103;54.300;10.180;2022-12-18T09:13:50;-4.70;2.30
14057;DHT22;7103;54.300;10.180;2022-12-18T09:16:18;-4.70;1.00
14057;DHT22;7103;54.300;10.180;2022-12-18T09:18:47;-4.60;1.00
14057;DHT22;7103;54.300;10.180;2022-12-18T09:21:20;-4.60;1.00
14057;DHT22;7103;54.300;10.180;2022-12-18T09:23:50;-4.50;1.00
14057;DHT22;7103;54.300;10.180;2022-12-18T09:26:18;-4.50;1.00
14057;DHT22;7103;54.300;10.180;2022-12-18T09:28:44;-4.50;1.00
14057;DHT22;7103;54.300;10.180;2022-12-18T09:31:15;-4.40;1.00
14057;DHT22;7103;54.300;10.180;2022-12-18T09:33:42;-4.40;1.00
14057;DHT22;7103;54.300;10.180;2022-12-18T09:36:13;-4.40;1.00
14057;DHT22;7103;54.300;10.180;2022-12-18T09:38:40;-4.30;1.00
14057;DHT22;7103;54.300;10.180;2022-12-18T09:44:00;-4.30;1.00
14057;DHT22;7103;54.300;10.180;2022-12-18T09:46:34;-4.30;1.00
14057;DHT22;7103;54.300;10.180;2022-12-18T09:49:06;-4.30;1.00
14057;DHT22;7103;54.300;10.180;2022-12-18T09:51:47;-4.30;1.00
14057;DHT22;7103;54.300;10.180;2022-12-18T09:54:22;-4.20;1.00
14057;DHT22;7103;54.300;10.180;2022-12-18T09:56:49;-4.10;1.00
14057;DHT22;7103;54.300;10.180;2022-12-18T09:59:34;-4.10;1.00
14057;DHT22;7103;54.300;10.180;2022-12-18T10:02:30;-4.00;1.00
14057;DHT22;7103;54.300;10.180;2022-12-18T10:05:14;-4.00;1.00
14057;DHT22;7103;54.300;10.180;2022-12-18T10:10:27;-4.00;1.00
14057;DHT22;7103;54.300;10.180;2022-12-18T10:16:19;-3.80;1.00
14057;DHT22;7103;54.300;10.180;2022-12-18T10:27:42;-3.40;1.00
14057;DHT22;7103;54.300;10.180;2022-12-18T10:30:14;-3.30;1.00
14057;DHT22;7103;54.300;10.180;2022-12-18T10:32:41;-3.20;1.00
14057;DHT22;7103;54.300;10.180;2022-12-18T10:40:30;-2.80;1.00
14057;DHT22;7103;54.300;10.180;2022-12-18T10:43:25;-2.60;1.00
14057;DHT22;7103;54.300;10.180;2022-12-18T10:48:28;-2.40;1.00
14057;DHT22;7103;54.300;10.180;2022-12-18T10:50:56;-2.40;1.00
14057;DHT22;7103;54.300;10.180;2022-12-18T10:53:41;-2.40;1.00
14057;DHT22;7103;54.300;10.180;2022-12-18T10:56:09;-2.40;1.00
14057;DHT22;7103;54.300;10.180;2022-12-18T10:58:38;-2.30;1.00
14057;DHT22;7103;54.300;10.180;2022-12-18T11:01:14;-2.40;1.00
14057;DHT22;7103;54.300;10.180;2022-12-18T11:06:14;-2.30;1.00
14057;DHT22;7103;54.300;10.180;2022-12-18T11:08:43;-2.20;1.00
14057;DHT22;7103;54.300;10.180;2022-12-18T11:11:21;-2.20;1.00
14057;DHT22;7103;54.300;10.180;2022-12-18T11:14:16;-2.10;1.00
14057;DHT22;7103;54.300;10.180;2022-12-18T11:16:47;-2.10;1.00
14057;DHT22;7103;54.300;10.180;2022-12-18T11:19:35;-2.10;1.00
14057;DHT22;7103;54.300;10.180;2022-12-18T11:22:20;-2.00;1.00
14057;DHT22;7103;54.300;10.180;2022-12-18T11:31:16;-2.00;1.00
14057;DHT22;7103;54.300;10.180;2022-12-18T11:36:43;-2.00;1.00
14057;DHT22;7103;54.300;10.180;2022-12-18T11:39:36;-2.00;1.00
14057;DHT22;7103;54.300;10.180;2022-12-18T11:50:46;-2.10;1.00
14057;DHT22;7103;54.300;10.180;2022-12-18T11:53:14;-2.10;1.00
14057;DHT22;7103;54.300;10.180;2022-12-18T12:06:34;-2.00;1.00
14057;DHT22;7103;54.300;10.180;2022-12-18T12:11:55;-1.90;1.00
14057;DHT22;7103;54.300;10.180;2022-12-18T12:20:00;-1.80;1.00
14057;DHT22;7103;54.300;10.180;2022-12-18T12:22:32;-1.80;1.00
14057;DHT22;7103;54.300;10.180;2022-12-18T12:25:04;-1.80;1.00
14057;DHT22;7103;54.300;10.180;2022-12-18T12:30:25;-1.80;1.00
14057;DHT22;7103;54.300;10.180;2022-12-18T12:33:24;-1.80;1.00
14057;DHT22;7103;54.300;10.180;2022-12-18T12:38:48;-1.80;1.00
14057;DHT22;7103;54.300;10.180;2022-12-18T12:41:20;-1.80;1.00
14057;DHT22;7103;54.300;10.180;2022-12-18T12:44:14;-1.80;1.00
14057;DHT22;7103;54.300;10.180;2022-12-18T12:46:42;-1.80;1.00
14057;DHT22;7103;54.300;10.180;2022-12-18T12:49:17;-1.70;1.00
14057;DHT22;7103;54.300;10.180;2022-12-18T12:51:53;-1.60;1.00
14057;DHT22;7103;54.300;10.180;2022-12-18T12:54:25;-1.60;1.00
14057;DHT22;7103;54.300;10.180;2022-12-18T12:57:41;-1.60;1.00
14057;DHT22;7103;54.300;10.180;2022-12-18T13:02:54;-1.70;1.00
14057;DHT22;7103;54.300;10.180;2022-12-18T13:10:57;-1.70;1.00
14057;DHT22;7103;54.300;10.180;2022-12-18T13:13:55;-1.70;1.00
14057;DHT22;7103;54.300;10.180;2022-12-18T13:16:25;-1.80;1.00
14057;DHT22;7103;54.300;10.180;2022-12-18T13:18:55;-1.80;1.00
14057;DHT22;7103;54.300;10.180;2022-12-18T13:21:28;-1.90;1.00
14057;DHT22;7103;54.300;10.180;2022-12-18T13:23:57;-1.80;1.00
14057;DHT22;7103;54.300;10.180;2022-12-18T13:26:40;-1.80;1.00
14057;DHT22;7103;54.300;10.180;2022-12-18T13:29:07;-1.80;1.00
14057;DHT22;7103;54.300;10.180;2022-12-18T13:34:23;-1.70;1.00
14057;DHT22;7103;54.300;10.180;2022-12-18T13:36:55;-1.70;1.00
14057;DHT22;7103;54.300;10.180;2022-12-18T13:39:33;-1.80;1.00
14057;DHT22;7103;54.300;10.180;2022-12-18T13:44:36;-2.00;1.00
14057;DHT22;7103;54.300;10.180;2022-12-18T13:47:31;-1.90;1.00
14057;DHT22;7103;54.300;10.180;2022-12-18T13:50:00;-2.00;1.00
14057;DHT22;7103;54.300;10.180;2022-12-18T13:52:33;-2.10;1.00
14057;DHT22;7103;54.300;10.180;2022-12-18T13:55:04;-2.10;1.00
14057;DHT22;7103;54.300;10.180;2022-12-18T13:57:34;-2.20;1.00
14057;DHT22;7103;54.300;10.180;2022-12-18T14:00:24;-2.20;1.00
14057;DHT22;7103;54.300;10.180;2022-12-18T14:02:52;-2.20;1.00
14057;DHT22;7103;54.300;10.180;2022-12-18T14:05:27;-2.20;1.00
14057;DHT22;7103;54.300;10.180;2022-12-18T14:07:55;-2.30;1.00
14057;DHT22;7103;54.300;10.180;2022-12-18T14:10:25;-2.40;1.00
14057;DHT22;7103;54.300;10.180;2022-12-18T14:13:26;-2.40;1.00
14057;DHT22;7103;54.300;10.180;2022-12-18T14:15:56;-2.60;1.00
14057;DHT22;7103;54.300;10.180;2022-12-18T14:18:45;-2.60;1.00
14057;DHT22;7103;54.300;10.180;2022-12-18T14:21:27;-2.60;1.00
14057;DHT22;7103;54.300;10.180;2022-12-18T14:24:18;-2.60;1.00
14057;DHT22;7103;54.300;10.180;2022-12-18T14:26:47;-2.70;1.00
14057;DHT22;7103;54.300;10.180;2022-12-18T14:29:26;-2.80;1.00
14057;DHT22;7103;54.300;10.180;2022-12-18T14:32:14;-2.90;1.00
14057;DHT22;7103;54.300;10.180;2022-12-18T14:34:46;-2.90;1.00
14057;DHT22;7103;54.300;10.180;2022-12-18T14:37:15;-2.90;1.00
14057;DHT22;7103;54.300;10.180;2022-12-18T14:40:05;-2.90;1.00
14057;DHT22;7103;54.300;10.180;2022-12-18T14:42:37;-2.90;1.00
14057;DHT22;7103;54.300;10.180;2022-12-18T14:45:36;-2.90;1.00
14057;DHT22;7103;54.300;10.180;2022-12-18T14:51:04;-2.90;1.00
14057;DHT22;7103;54.300;10.180;2022-12-18T14:53:44;-2.90;1.00
14057;DHT22;7103;54.300;10.180;2022-12-18T14:58:54;-3.00;1.00
14057;DHT22;7103;54.300;10.180;2022-12-18T15:01:25;-3.00;1.00
14057;DHT22;7103;54.300;10.180;2022-12-18T15:03:54;-3.00;1.00
14057;DHT22;7103;54.300;10.180;2022-12-18T15:06:27;-3.00;1.00
14057;DHT22;7103;54.300;10.180;2022-12-18T15:08:54;-3.10;1.00
14057;DHT22;7103;54.300;10.180;2022-12-18T15:11:33;-3.10;1.00
14057;DHT22;7103;54.300;10.180;2022-12-18T15:14:21;-3.10;1.00
14057;DHT22;7103;54.300;10.180;2022-12-18T15:16:53;-3.10;1.00
14057;DHT22;7103;54.300;10.180;2022-12-18T15:19:22;-3.20;1.00
14057;DHT22;7103;54.300;10.180;2022-12-18T15:21:51;-3.20;1.00
14057;DHT22;7103;54.300;10.180;2022-12-18T15:24:22;-3.20;1.00
14057;DHT22;7103;54.300;10.180;2022-12-18T15:26:51;-3.30;1.00
14057;DHT22;7103;54.300;10.180;2022-12-18T15:29:21;-3.40;1.00
14057;DHT22;7103;54.300;10.180;2022-12-18T15:32:00;-3.40;1.00
14057;DHT22;7103;54.300;10.180;2022-12-18T15:34:27;-3.40;1.00
14057;DHT22;7103;54.300;10.180;2022-12-18T15:36:54;-3.30;1.00
14057;DHT22;7103;54.300;10.180;2022-12-18T15:39:21;-3.40;1.00
14057;DHT22;7103;54.300;10.180;2022-12-18T15:41:48;-3.30;1.00
14057;DHT22;7103;54.300;10.180;2022-12-18T15:44:34;-3.30;1.00
14057;DHT22;7103;54.300;10.180;2022-12-18T15:47:01;-3.30;1.00
14057;DHT22;7103;54.300;10.180;2022-12-18T15:49:28;-3.30;1.00
14057;DHT22;7103;54.300;10.180;2022-12-18T15:51:58;-3.30;1.00
14057;DHT22;7103;54.300;10.180;2022-12-18T15:54:26;-3.30;1.00
14057;DHT22;7103;54.300;10.180;2022-12-18T15:57:31;-3.40;1.00
14057;DHT22;7103;54.300;10.180;2022-12-18T15:59:58;-3.40;1.00
14057;DHT22;7103;54.300;10.180;2022-12-18T16:02:25;-3.40;1.00
14057;DHT22;7103;54.300;10.180;2022-12-18T16:04:52;-3.40;1.00
14057;DHT22;7103;54.300;10.180;2022-12-18T16:07:23;-3.40;1.00
14057;DHT22;7103;54.300;10.180;2022-12-18T16:09:55;-3.30;1.00
14057;DHT22;7103;54.300;10.180;2022-12-18T16:12:25;-3.30;1.00
14057;DHT22;7103;54.300;10.180;2022-12-18T16:14:52;-3.30;1.00
14057;DHT22;7103;54.300;10.180;2022-12-18T16:17:19;-3.30;1.00
14057;DHT22;7103;54.300;10.180;2022-12-18T16:19:46;-3.30;1.00
14057;DHT22;7103;54.300;10.180;2022-12-18T16:22:19;-3.30;1.00
14057;DHT22;7103;54.300;10.180;2022-12-18T16:24:47;-3.30;1.00
14057;DHT22;7103;54.300;10.180;2022-12-18T16:27:14;-3.30;1.00
14057;DHT22;7103;54.300;10.180;2022-12-18T16:29:41;-3.30;1.00
14057;DHT22;7103;54.300;10.180;2022-12-18T16:32:16;-3.30;1.00
14057;DHT22;7103;54.300;10.180;2022-12-18T16:34:44;-3.30;1.00
14057;DHT22;7103;54.300;10.180;2022-12-18T16:37:12;-3.30;1.00
14057;DHT22;7103;54.300;10.180;2022-12-18T16:39:40;-3.30;1.00
14057;DHT22;7103;54.300;10.180;2022-12-18T16:42:13;-3.20;1.00
14057;DHT22;7103;54.300;10.180;2022-12-18T16:44:41;-3.30;1.00
14057;DHT22;7103;54.300;10.180;2022-12-18T16:47:08;-3.30;1.00
14057;DHT22;7103;54.300;10.180;2022-12-18T16:49:38;-3.30;1.00
14057;DHT22;7103;54.300;10.180;2022-12-18T16:52:06;-3.20;1.00
14057;DHT22;7103;54.300;10.180;2022-12-18T16:54:33;-3.20;1.00
14057;DHT22;7103;54.300;10.180;2022-12-18T16:57:03;-3.20;1.00
14057;DHT22;7103;54.300;10.180;2022-12-18T16:59:34;-3.20;1.00
14057;DHT22;7103;54.300;10.180;2022-12-18T17:02:02;-3.20;1.00
14057;DHT22;7103;54.300;10.180;2022-12-18T17:04:29;-3.20;1.00
14057;DHT22;7103;54.300;10.180;2022-12-18T17:06:56;-3.10;1.00
14057;DHT22;7103;54.300;10.180;2022-12-18T17:09:23;-3.10;1.00
14057;DHT22;7103;54.300;10.180;2022-12-18T17:11:51;-3.10;1.00
14057;DHT22;7103;54.300;10.180;2022-12-18T17:14:20;-3.10;1.00
14057;DHT22;7103;54.300;10.180;2022-12-18T17:16:47;-3.10;1.00
14057;DHT22;7103;54.300;10.180;2022-12-18T17:19:34;-3.10;1.00
14057;DHT22;7103;54.300;10.180;2022-12-18T17:22:01;-3.10;1.00
14057;DHT22;7103;54.300;10.180;2022-12-18T17:24:30;-3.20;1.00
14057;DHT22;7103;54.300;10.180;2022-12-18T17:27:01;-3.10;1.00
14057;DHT22;7103;54.300;10.180;2022-12-18T17:29:28;-3.10;1.00
14057;DHT22;7103;54.300;10.180;2022-12-18T17:31:55;-3.10;1.00
14057;DHT22;7103;54.300;10.180;2022-12-18T17:34:24;-3.10;1.00
14057;DHT22;7103;54.300;10.180;2022-12-18T17:36:51;-3.10;1.00
14057;DHT22;7103;54.300;10.180;2022-12-18T17:39:19;-3.10;1.00
14057;DHT22;7103;54.300;10.180;2022-12-18T17:41:46;-3.10;1.00
14057;DHT22;7103;54.300;10.180;2022-12-18T17:44:14;-3.00;1.00
14057;DHT22;7103;54.300;10.180;2022-12-18T17:46:44;-3.00;1.00
14057;DHT22;7103;54.300;10.180;2022-12-18T17:49:12;-3.00;1.00
14057;DHT22;7103;54.300;10.180;2022-12-18T17:51:40;-3.00;1.00
14057;DHT22;7103;54.300;10.180;2022-12-18T17:54:09;-2.90;1.00
14057;DHT22;7103;54.300;10.180;2022-12-18T17:56:37;-2.90;1.00
14057;DHT22;7103;54.300;10.180;2022-12-18T17:59:05;-2.90;1.00